Time;durP1;ratioP1;P1;durP2;ratioP2;P2;SDS_P1;SDS_P2;PMS_P1;PMS_P2;Temp;Humidity;BMP_temperature;BMP_pressure;BME280_temperature;BME280_humidity;BME280_pressure;Samples;Min_cycle;Max_cycle;Signal;HPM_P1;HPM_P2
2023/04/06 00:01:43;;;;;;;16.23;9.65;;;;;;;-2.63;100.00;98872.28;4158776;28;20392;-70
2023/04/06 00:03:43;;;;;;;18.05;10.50;;;;;;;-2.69;100.00;98873.41;4157659;28;20053;-69
2023/04/06 00:05:44;;;;;;;14.25;9.13;;;;;;;-2.73;100.00;98872.34;4161774;28;20123;-69
2023/04/06 00:07:44;;;;;;;19.80;9.70;;;;;;;-2.70;100.00;98872.59;4161405;28;20077;-69
2023/04/06 00:09:45;;;;;;;16.52;9.20;;;;;;;-2.70;100.00;98864.47;4163295;28;20195;-69
2023/04/06 00:11:45;;;;;;;12.93;9.15;;;;;;;-2.66;100.00;98860.09;4161230;28;20453;-69
2023/04/06 00:13:45;;;;;;;13.35;8.90;;;;;;;-2.67;100.00;98865.78;4161321;28;20044;-69
2023/04/06 00:15:46;;;;;;;14.65;9.50;;;;;;;-2.70;100.00;98860.97;4163060;28;20072;-69
2023/04/06 00:17:46;;;;;;;17.25;8.45;;;;;;;-2.75;100.00;98855.56;4165972;28;20091;-69
2023/04/06 00:19:46;;;;;;;13.60;9.13;;;;;;;-2.79;100.00;98854.53;4162255;28;20049;-69
2023/04/06 00:21:47;;;;;;;14.77;10.00;;;;;;;-2.83;100.00;98846.13;4162428;28;20145;-69
2023/04/06 00:23:47;;;;;;;17.23;9.35;;;;;;;-2.83;100.00;98852.34;4162527;28;20044;-69
2023/04/06 00:25:47;;;;;;;14.27;9.27;;;;;;;-2.84;100.00;98847.22;4160913;28;20116;-69
2023/04/06 00:27:48;;;;;;;13.52;9.23;;;;;;;-2.88;100.00;98846.19;4161409;28;20037;-69
2023/04/06 00:29:48;;;;;;;14.27;8.80;;;;;;;-2.86;100.00;98850.22;4162402;28;20449;-69
2023/04/06 00:31:48;;;;;;;14.95;10.18;;;;;;;-2.95;100.00;98854.63;4160832;28;20539;-69
2023/04/06 00:33:49;;;;;;;13.95;9.07;;;;;;;-2.97;100.00;98845.97;4161201;28;20437;-69
2023/04/06 00:35:50;;;;;;;14.10;8.80;;;;;;;-2.94;100.00;98853.53;4162591;28;20080;-69
2023/04/06 00:37:50;;;;;;;16.63;9.65;;;;;;;-2.92;100.00;98843.22;4161882;28;20132;-69
2023/04/06 00:39:53;;;;;;;12.02;8.57;;;;;;;-2.89;100.00;98850.00;4160565;28;20141;-69
2023/04/06 00:41:54;;;;;;;15.77;9.20;;;;;;;-2.91;100.00;98842.13;4162503;28;20375;-69
2023/04/06 00:43:55;;;;;;;12.13;8.52;;;;;;;-2.93;100.00;98847.03;4161056;28;20467;-69
2023/04/06 00:45:55;;;;;;;12.77;8.80;;;;;;;-2.91;100.00;98842.13;4164532;28;20133;-69
2023/04/06 00:47:56;;;;;;;11.70;7.70;;;;;;;-2.85;100.00;98842.91;4162754;28;20037;-69
2023/04/06 00:49:56;;;;;;;15.60;9.23;;;;;;;-2.83;100.00;98836.09;4162629;28;20087;-69
2023/04/06 00:51:57;;;;;;;16.70;8.82;;;;;;;-2.85;100.00;98832.88;4162818;28;20175;-69
2023/04/06 00:53:57;;;;;;;13.98;9.05;;;;;;;-2.80;100.00;98842.06;4160705;28;20069;-69
2023/04/06 00:55:57;;;;;;;14.32;8.95;;;;;;;-2.83;100.00;98838.81;4161579;28;20369;-69
2023/04/06 00:57:59;;;;;;;14.80;8.63;;;;;;;-2.86;100.00;98830.47;4161150;28;20071;-69
2023/04/06 01:00:00;;;;;;;15.57;9.25;;;;;;;-2.87;100.00;98826.94;4160113;28;20072;-69
2023/04/06 01:02:00;;;;;;;14.90;9.75;;;;;;;-2.90;100.00;98815.84;4160691;28;20073;-69
2023/04/06 01:04:02;;;;;;;14.98;9.50;;;;;;;-2.94;100.00;98831.06;4160598;28;20038;-70
2023/04/06 01:06:03;;;;;;;12.90;8.80;;;;;;;-2.97;100.00;98828.94;4160696;28;20411;-69
2023/04/06 01:08:03;;;;;;;14.07;8.80;;;;;;;-2.96;100.00;98831.34;4161002;28;20021;-69
2023/04/06 01:10:04;;;;;;;14.20;8.95;;;;;;;-2.93;100.00;98819.94;4161248;28;20470;-70
2023/04/06 01:12:05;;;;;;;14.75;8.93;;;;;;;-2.96;100.00;98822.41;4165986;28;20033;-69
2023/04/06 01:14:05;;;;;;;14.10;9.20;;;;;;;-3.02;100.00;98821.63;4166238;28;20032;-69
2023/04/06 01:16:06;;;;;;;16.70;9.25;;;;;;;-3.03;100.00;98820.03;4161325;28;20052;-69
2023/04/06 01:18:10;;;;;;;12.85;8.82;;;;;;;-3.14;100.00;98818.47;4160987;28;20037;-69
2023/04/06 01:20:10;;;;;;;14.10;8.48;;;;;;;-3.24;100.00;98813.09;4161529;28;20032;-69
2023/04/06 01:22:17;;;;;;;14.00;8.43;;;;;;;-3.27;100.00;98827.19;4160007;28;20521;-69
2023/04/06 01:24:18;;;;;;;13.77;9.50;;;;;;;-3.34;100.00;98827.50;4179143;28;20035;-69
2023/04/06 01:26:18;;;;;;;16.10;9.40;;;;;;;-3.33;100.00;98820.19;4160833;28;20033;-69
2023/04/06 01:28:19;;;;;;;15.52;9.75;;;;;;;-3.35;100.00;98815.06;4160511;28;20033;-69
2023/04/06 01:30:19;;;;;;;15.50;8.93;;;;;;;-3.42;100.00;98814.56;4161092;28;20033;-69
2023/04/06 01:32:20;;;;;;;14.70;10.13;;;;;;;-3.42;100.00;98818.06;4165180;28;20032;-69
2023/04/06 01:34:20;;;;;;;20.30;10.13;;;;;;;-3.36;100.00;98823.47;4175683;28;20051;-69
2023/04/06 01:36:22;;;;;;;14.02;9.30;;;;;;;-3.41;100.00;98816.16;4159921;28;20037;-69
2023/04/06 01:38:22;;;;;;;16.67;9.55;;;;;;;-3.47;100.00;98825.41;4160943;28;20076;-69
2023/04/06 01:40:23;;;;;;;16.90;9.93;;;;;;;-3.46;100.00;98818.91;4166565;28;20401;-69
2023/04/06 01:42:23;;;;;;;17.40;9.80;;;;;;;-3.46;100.00;98819.72;4159602;28;20049;-69
2023/04/06 01:44:24;;;;;;;17.25;9.85;;;;;;;-3.55;100.00;98813.28;4160537;28;20041;-69
2023/04/06 01:46:24;;;;;;;18.50;11.38;;;;;;;-3.56;100.00;98808.94;4161324;28;20048;-69
2023/04/06 01:48:26;;;;;;;17.20;9.48;;;;;;;-3.54;100.00;98814.09;4162099;28;20041;-69
2023/04/06 01:50:26;;;;;;;13.90;9.85;;;;;;;-3.51;100.00;98810.81;4166403;28;20549;-69
2023/04/06 01:52:26;;;;;;;18.65;10.35;;;;;;;-3.43;100.00;98815.66;4165602;28;20049;-69
2023/04/06 01:54:27;;;;;;;15.68;10.05;;;;;;;-3.46;100.00;98806.19;4160666;28;20056;-69
2023/04/06 01:56:27;;;;;;;16.33;9.48;;;;;;;-3.42;100.00;98815.34;4160797;28;20490;-69
2023/04/06 01:58:27;;;;;;;15.68;10.13;;;;;;;-3.52;100.00;98803.78;4160641;28;20034;-69
2023/04/06 02:00:28;;;;;;;14.25;9.02;;;;;;;-3.49;100.00;98814.03;4160005;28;20065;-69
2023/04/06 02:02:28;;;;;;;15.48;9.68;;;;;;;-3.47;100.00;98809.19;4160488;28;20038;-69
2023/04/06 02:04:28;;;;;;;16.33;9.68;;;;;;;-3.55;100.00;98809.75;4161940;28;20049;-69
2023/04/06 02:06:30;;;;;;;14.40;9.60;;;;;;;-3.63;100.00;98815.75;4167326;28;20113;-69
2023/04/06 02:08:30;;;;;;;14.27;9.05;;;;;;;-3.70;100.00;98807.94;4163712;28;20049;-69
2023/04/06 02:10:31;;;;;;;16.17;9.80;;;;;;;-3.63;100.00;98804.94;4160329;28;20029;-69
2023/04/06 02:12:31;;;;;;;14.27;9.25;;;;;;;-3.69;100.00;98810.34;4159098;28;20055;-69
2023/04/06 02:14:32;;;;;;;13.48;9.10;;;;;;;-3.74;100.00;98812.25;4160125;28;20605;-69
2023/04/06 02:16:33;;;;;;;19.55;9.48;;;;;;;-3.74;100.00;98807.66;4160371;28;20371;-69
2023/04/06 02:18:33;;;;;;;16.35;9.45;;;;;;;-3.75;100.00;98803.34;4163170;28;20088;-69
2023/04/06 02:20:33;;;;;;;17.70;9.82;;;;;;;-3.72;100.00;98804.69;4159035;28;20444;-69
2023/04/06 02:22:37;;;;;;;15.60;8.63;;;;;;;-3.76;100.00;98796.31;4160358;28;20482;-69
2023/04/06 02:24:37;;;;;;;16.45;10.05;;;;;;;-3.85;100.00;98806.09;4159864;28;20393;-69
2023/04/06 02:26:38;;;;;;;13.55;8.65;;;;;;;-3.85;100.00;98803.38;4159263;28;20120;-69
2023/04/06 02:28:38;;;;;;;16.73;9.68;;;;;;;-3.82;100.00;98792.00;4159844;28;20290;-69
2023/04/06 02:30:39;;;;;;;19.40;9.48;;;;;;;-3.79;100.00;98793.38;4165721;28;20120;-69
2023/04/06 02:32:39;;;;;;;18.50;10.77;;;;;;;-3.87;100.00;98802.84;4158717;28;20049;-69
2023/04/06 02:34:40;;;;;;;15.77;9.75;;;;;;;-3.98;100.00;98802.06;4159490;28;20150;-69
2023/04/06 02:36:40;;;;;;;15.50;9.70;;;;;;;-4.01;100.00;98796.41;4160319;28;20529;-69
2023/04/06 02:38:40;;;;;;;18.33;8.70;;;;;;;-3.97;100.00;98795.59;4159233;28;20478;-69
2023/04/06 02:40:41;;;;;;;17.60;9.98;;;;;;;-4.02;100.00;98787.50;4160622;28;20490;-69
2023/04/06 02:42:41;;;;;;;18.17;10.35;;;;;;;-4.07;100.00;98789.41;4158653;28;20164;-69
2023/04/06 02:44:42;;;;;;;16.95;9.85;;;;;;;-4.09;100.00;98788.88;4165611;28;20042;-69
2023/04/06 02:46:43;;;;;;;15.80;10.05;;;;;;;-4.18;100.00;98798.63;4163824;28;20469;-69
2023/04/06 02:48:43;;;;;;;15.40;9.45;;;;;;;-4.20;100.00;98790.00;4163089;28;20295;-69
2023/04/06 02:50:43;;;;;;;17.15;10.02;;;;;;;-4.18;100.00;98794.03;4159578;28;20052;-69
2023/04/06 02:52:44;;;;;;;14.23;8.52;;;;;;;-4.13;100.00;98795.91;4158468;28;20390;-69
2023/04/06 02:54:44;;;;;;;16.33;9.07;;;;;;;-4.20;100.00;98801.59;4159363;28;20037;-69
2023/04/06 02:56:45;;;;;;;15.93;9.52;;;;;;;-4.26;100.00;98806.19;4159456;28;20037;-69
2023/04/06 02:58:45;;;;;;;18.70;9.60;;;;;;;-4.26;100.00;98794.59;4158722;28;20049;-69
2023/04/06 03:00:45;;;;;;;21.92;10.18;;;;;;;-4.21;100.00;98800.00;4159734;28;20162;-69
2023/04/06 03:02:46;;;;;;;17.10;10.05;;;;;;;-4.25;100.00;98796.19;4158838;28;20081;-69
2023/04/06 03:04:47;;;;;;;13.23;8.77;;;;;;;-4.29;100.00;98804.06;4160092;28;20490;-69
2023/04/06 03:06:47;;;;;;;13.60;8.82;;;;;;;-4.28;100.00;98788.66;4158670;28;20041;-69
2023/04/06 03:08:47;;;;;;;16.55;8.52;;;;;;;-4.30;100.00;98799.75;4159651;28;20061;-69
2023/04/06 03:10:48;;;;;;;16.33;9.23;;;;;;;-4.34;100.00;98804.06;4160076;28;20041;-69
2023/04/06 03:12:48;;;;;;;15.60;10.02;;;;;;;-4.38;100.00;98797.59;4157459;28;20037;-69
2023/04/06 03:14:48;;;;;;;14.32;9.15;;;;;;;-4.42;100.00;98793.81;4159433;28;20099;-69
2023/04/06 03:16:49;;;;;;;13.02;8.65;;;;;;;-4.50;100.00;98793.53;4161104;28;20037;-69
2023/04/06 03:18:49;;;;;;;14.82;9.13;;;;;;;-4.45;100.00;98797.06;4160020;28;20405;-69
2023/04/06 03:20:50;;;;;;;13.70;8.85;;;;;;;-4.43;100.00;98800.28;4158003;28;20065;-69
2023/04/06 03:22:50;;;;;;;24.80;13.00;;;;;;;-4.52;100.00;98797.31;4158229;28;20087;-69
2023/04/06 03:24:51;;;;;;;27.55;15.20;;;;;;;-4.47;100.00;98798.38;4159592;28;20060;-69
2023/04/06 03:26:51;;;;;;;23.25;12.77;;;;;;;-4.44;100.00;98801.38;4158179;28;20065;-69
2023/04/06 03:28:51;;;;;;;26.85;14.02;;;;;;;-4.46;100.00;98794.63;4159382;28;20041;-69
2023/04/06 03:30:52;;;;;;;65.97;30.92;;;;;;;-4.53;100.00;98809.22;4159890;28;20578;-69
2023/04/06 03:32:52;;;;;;;57.80;27.13;;;;;;;-4.63;100.00;98803.84;4157966;28;20421;-69
2023/04/06 03:34:53;;;;;;;42.75;21.80;;;;;;;-4.59;100.00;98796.78;4158771;28;20064;-69
2023/04/06 03:36:53;;;;;;;30.48;17.98;;;;;;;-4.65;100.00;98795.16;4159427;28;20043;-69
2023/04/06 03:38:53;;;;;;;52.95;24.50;;;;;;;-4.66;100.00;98793.56;4159956;28;20136;-69
2023/04/06 03:40:54;;;;;;;52.20;24.98;;;;;;;-4.67;100.00;98794.63;4163711;28;20034;-69
2023/04/06 03:42:54;;;;;;;41.72;19.95;;;;;;;-4.75;100.00;98792.47;4162537;28;20126;-69
2023/04/06 03:44:55;;;;;;;31.85;16.73;;;;;;;-4.78;100.00;98806.53;4162639;28;20041;-69
2023/04/06 03:46:55;;;;;;;35.72;14.52;;;;;;;-4.77;100.00;98799.25;4161321;28;20429;-69
2023/04/06 03:48:55;;;;;;;38.58;17.90;;;;;;;-4.79;100.00;98804.09;4162792;28;20038;-69
2023/04/06 03:50:56;;;;;;;28.88;14.30;;;;;;;-4.81;100.00;98807.06;4162846;28;20095;-69
2023/04/06 03:52:57;;;;;;;20.25;11.73;;;;;;;-4.79;100.00;98809.50;4161431;28;20120;-69
2023/04/06 03:54:57;;;;;;;18.98;10.63;;;;;;;-4.83;100.00;98803.81;4161055;28;20052;-69
2023/04/06 03:56:57;;;;;;;26.02;12.82;;;;;;;-4.79;100.00;98813.00;4162842;28;20420;-69
2023/04/06 03:58:58;;;;;;;19.42;11.25;;;;;;;-4.81;100.00;98813.25;4161761;28;20050;-69
2023/04/06 04:00:58;;;;;;;18.55;10.40;;;;;;;-4.72;100.00;98816.22;4164843;28;20048;-69
2023/04/06 04:02:59;;;;;;;22.13;11.02;;;;;;;-4.67;100.00;98818.13;4162248;28;20489;-69
2023/04/06 04:04:59;;;;;;;24.70;12.73;;;;;;;-4.77;100.00;98815.44;4162023;28;20475;-69
2023/04/06 04:07:00;;;;;;;22.33;11.35;;;;;;;-4.84;100.00;98816.50;4161975;28;20551;-69
2023/04/06 04:09:00;;;;;;;29.02;15.10;;;;;;;-4.88;100.00;98818.13;4161895;28;20220;-69
2023/04/06 04:11:01;;;;;;;26.55;13.93;;;;;;;-4.87;100.00;98818.94;4161738;28;20096;-69
2023/04/06 04:13:01;;;;;;;26.52;13.25;;;;;;;-4.89;100.00;98812.97;4162061;28;20033;-69
2023/04/06 04:15:02;;;;;;;27.05;12.10;;;;;;;-4.85;100.00;98819.47;4180445;28;20045;-69
2023/04/06 04:17:03;;;;;;;21.95;12.93;;;;;;;-4.83;100.00;98815.41;4162203;28;20030;-69
2023/04/06 04:19:03;;;;;;;22.88;12.52;;;;;;;-4.88;100.00;98823.53;4161971;28;20407;-69
2023/04/06 04:21:03;;;;;;;19.17;10.43;;;;;;;-4.94;100.00;98821.09;4162154;28;20505;-69
2023/04/06 04:23:04;;;;;;;17.23;9.57;;;;;;;-4.99;100.00;98823.78;4164062;28;20124;-69
2023/04/06 04:25:05;;;;;;;18.63;10.65;;;;;;;-4.97;100.00;98824.31;4163441;28;20045;-69
2023/04/06 04:27:05;;;;;;;19.55;12.05;;;;;;;-5.00;100.00;98822.97;4161216;28;20447;-69
2023/04/06 04:29:06;;;;;;;28.85;14.68;;;;;;;-5.00;100.00;98817.56;4161703;28;20382;-69
2023/04/06 04:31:06;;;;;;;25.33;14.88;;;;;;;-4.95;100.00;98820.28;4161522;28;20179;-69
2023/04/06 04:33:07;;;;;;;25.25;15.18;;;;;;;-4.99;100.00;98829.19;4160390;28;20489;-69
2023/04/06 04:35:08;;;;;;;30.50;17.13;;;;;;;-5.09;100.00;98822.69;4163030;28;20116;-69
2023/04/06 04:37:08;;;;;;;38.15;17.60;;;;;;;-5.14;100.00;98819.97;4161440;28;20036;-69
2023/04/06 04:39:08;;;;;;;23.50;12.95;;;;;;;-5.16;100.00;98824.81;4161935;28;20124;-68
2023/04/06 04:41:09;;;;;;;15.10;9.70;;;;;;;-5.24;100.00;98819.97;4161877;28;20443;-69
2023/04/06 04:43:09;;;;;;;15.40;9.55;;;;;;;-5.27;100.00;98828.59;4160736;28;20076;-69
2023/04/06 04:45:10;;;;;;;12.98;8.23;;;;;;;-5.36;100.00;98816.72;4168557;28;20029;-69
2023/04/06 04:47:10;;;;;;;15.93;9.55;;;;;;;-5.40;100.00;98824.50;4160766;28;20057;-69
2023/04/06 04:49:11;;;;;;;12.43;9.18;;;;;;;-5.46;100.00;98814.78;4167462;28;20050;-70
2023/04/06 04:51:11;;;;;;;19.13;9.82;;;;;;;-5.45;100.00;98834.47;4161733;28;20504;-69
2023/04/06 04:53:12;;;;;;;14.95;9.45;;;;;;;-5.48;100.00;98827.72;4159722;28;20122;-70
2023/04/06 04:55:12;;;;;;;18.00;9.63;;;;;;;-5.50;100.00;98829.88;4161835;28;20037;-69
2023/04/06 04:57:12;;;;;;;17.13;10.32;;;;;;;-5.47;100.00;98833.91;4160864;28;20037;-69
2023/04/06 04:59:13;;;;;;;16.30;9.75;;;;;;;-5.43;100.00;98837.72;4161457;28;20041;-69
2023/04/06 05:01:14;;;;;;;17.42;10.13;;;;;;;-5.41;100.00;98838.25;4160661;28;20172;-70
2023/04/06 05:03:21;;;;;;;14.40;10.48;;;;;;;-5.36;100.00;98838.28;4160236;28;20042;-69
2023/04/06 05:05:22;;;;;;;23.98;11.80;;;;;;;-5.28;100.00;98831.56;4161879;28;20477;-70
2023/04/06 05:07:22;;;;;;;18.63;10.82;;;;;;;-5.25;100.00;98837.22;4160367;28;20029;-71
2023/04/06 05:09:22;;;;;;;21.08;11.60;;;;;;;-5.24;100.00;98835.34;4160612;28;20106;-70
2023/04/06 05:11:23;;;;;;;17.23;11.00;;;;;;;-5.25;100.00;98837.22;4161535;28;20053;-70
2023/04/06 05:13:23;;;;;;;19.65;10.35;;;;;;;-5.27;100.00;98844.78;4160411;28;20385;-70
2023/04/06 05:15:24;;;;;;;14.05;9.35;;;;;;;-5.30;100.00;98825.59;4160157;28;20057;-70
2023/04/06 05:17:25;;;;;;;14.10;8.80;;;;;;;-5.32;100.00;98830.47;4161825;28;20052;-70
2023/04/06 05:19:25;;;;;;;16.65;9.23;;;;;;;-5.32;100.00;98828.56;4161434;28;20040;-70
2023/04/06 05:21:26;;;;;;;15.18;8.45;;;;;;;-5.26;100.00;98832.91;4160176;28;20678;-70
2023/04/06 05:23:26;;;;;;;14.95;9.00;;;;;;;-5.24;100.00;98829.94;4148420;28;20738;-70
2023/04/06 05:25:27;;;;;;;15.63;8.95;;;;;;;-5.20;100.00;98831.84;4165133;28;20407;-70
2023/04/06 05:27:27;;;;;;;18.98;9.13;;;;;;;-5.17;100.00;98831.31;4165606;28;20049;-70
2023/04/06 05:29:28;;;;;;;19.50;10.38;;;;;;;-5.16;100.00;98835.63;4164101;28;20068;-70
2023/04/06 05:31:29;;;;;;;15.93;8.70;;;;;;;-5.13;100.00;98835.09;4163720;28;20041;-70
2023/04/06 05:33:29;;;;;;;13.50;8.45;;;;;;;-5.09;100.00;98836.19;4160016;28;20036;-69
2023/04/06 05:35:30;;;;;;;17.42;9.05;;;;;;;-5.06;100.00;98836.72;4159399;28;20478;-70
2023/04/06 05:37:30;;;;;;;17.27;9.52;;;;;;;-4.99;100.00;98834.56;4160382;28;20145;-70
2023/04/06 05:39:31;;;;;;;18.30;9.98;;;;;;;-4.95;100.00;98831.09;4160906;28;20087;-70
2023/04/06 05:41:31;;;;;;;15.00;9.05;;;;;;;-4.92;100.00;98830.53;4161745;28;20052;-70
2023/04/06 05:43:31;;;;;;;17.25;9.52;;;;;;;-4.88;100.00;98833.50;4159297;28;20042;-70
2023/04/06 05:45:32;;;;;;;16.38;9.75;;;;;;;-4.84;100.00;98837.28;4160820;28;20755;-69
2023/04/06 05:47:32;;;;;;;15.15;9.27;;;;;;;-4.81;100.00;98834.84;4160063;28;20160;-70
2023/04/06 05:49:33;;;;;;;20.00;10.10;;;;;;;-4.70;100.00;98845.69;4160125;28;20123;-70
2023/04/06 05:51:33;;;;;;;18.73;10.38;;;;;;;-4.63;100.00;98841.63;4160770;28;20089;-70
2023/04/06 05:53:33;;;;;;;19.70;10.35;;;;;;;-4.58;100.00;98838.91;4164400;28;20122;-70
2023/04/06 05:55:34;;;;;;;19.55;9.55;;;;;;;-4.48;100.00;98842.69;4166720;28;20068;-69
2023/04/06 05:57:34;;;;;;;19.73;10.40;;;;;;;-4.40;100.00;98847.53;4160153;28;20040;-70
2023/04/06 05:59:35;;;;;;;23.60;10.70;;;;;;;-4.28;100.00;98840.78;4160090;28;20041;-70
2023/04/06 06:01:35;;;;;;;18.85;10.95;;;;;;;-4.14;100.00;98842.91;4159632;28;20124;-69
2023/04/06 06:03:36;;;;;;;21.58;10.20;;;;;;;-4.09;100.00;98840.22;4163181;28;20128;-70
2023/04/06 06:05:36;;;;;;;25.13;12.10;;;;;;;-4.02;100.00;98852.34;4162967;28;20038;-69
2023/04/06 06:07:37;;;;;;;20.48;10.90;;;;;;;-3.97;100.00;98841.56;4141411;28;20095;-70
2023/04/06 06:09:37;;;;;;;24.55;11.25;;;;;;;-3.81;100.00;98842.28;4159525;28;20102;-70
2023/04/06 06:11:38;;;;;;;20.42;10.98;;;;;;;-3.78;100.00;98843.66;4160362;28;20366;-70
2023/04/06 06:13:38;;;;;;;21.33;10.65;;;;;;;-3.71;100.00;98847.69;4159701;28;20436;-69
2023/04/06 06:15:39;;;;;;;19.27;9.65;;;;;;;-3.64;100.00;98851.97;4160800;28;20484;-70
2023/04/06 06:17:39;;;;;;;17.83;9.75;;;;;;;-3.62;100.00;98845.22;4175297;28;20108;-70
2023/04/06 06:19:40;;;;;;;18.00;9.70;;;;;;;-3.58;100.00;98846.28;4160333;28;20037;-70
2023/04/06 06:21:40;;;;;;;16.42;9.55;;;;;;;-3.51;100.00;98848.69;4159447;28;20046;-70
2023/04/06 06:23:42;;;;;;;15.10;8.88;;;;;;;-3.47;100.00;98850.56;4159824;28;20041;-70
2023/04/06 06:25:43;;;;;;;12.68;8.10;;;;;;;-3.45;100.00;98848.41;4160743;28;20041;-70
2023/04/06 06:27:43;;;;;;;14.15;8.43;;;;;;;-3.41;100.00;98848.63;4159118;28;20469;-70
2023/04/06 06:29:43;;;;;;;14.23;8.63;;;;;;;-3.38;100.00;98850.81;4159630;28;20478;-70
2023/04/06 06:31:44;;;;;;;12.93;8.65;;;;;;;-3.32;100.00;98851.56;4160531;28;20513;-70
2023/04/06 06:33:44;;;;;;;17.90;8.93;;;;;;;-3.27;100.00;98856.97;4159482;28;20092;-70
2023/04/06 06:35:44;;;;;;;10.65;7.10;;;;;;;-3.21;100.00;98847.75;4159039;28;20060;-70
2023/04/06 06:37:45;;;;;;;13.02;8.15;;;;;;;-3.13;100.00;98850.66;4160360;28;20044;-70
2023/04/06 06:39:45;;;;;;;12.70;7.85;;;;;;;-3.04;100.00;98850.88;4160423;28;20214;-70
2023/04/06 06:41:45;;;;;;;16.08;8.90;;;;;;;-2.97;100.00;98848.69;4158361;28;20038;-70
2023/04/06 06:43:46;;;;;;;14.50;9.65;;;;;;;-2.89;100.00;98850.78;4160198;28;20429;-70
2023/04/06 06:45:46;;;;;;;14.05;8.23;;;;;;;-2.85;100.00;98840.19;4164528;28;20104;-70
2023/04/06 06:47:47;;;;;;;12.48;7.45;;;;;;;-2.76;100.00;98849.34;4158799;28;20094;-70
2023/04/06 06:49:47;;;;;;;12.43;8.18;;;;;;;-2.67;100.00;98846.84;4159242;28;20041;-70
2023/04/06 06:51:47;;;;;;;14.13;9.30;;;;;;;-2.60;100.00;98833.78;4159656;28;20035;-70
2023/04/06 06:53:48;;;;;;;13.10;8.15;;;;;;;-2.49;100.00;98846.16;4174399;28;20132;-70
2023/04/06 06:55:48;;;;;;;17.80;8.80;;;;;;;-2.42;100.00;98834.97;4158317;28;20044;-70
2023/04/06 06:57:49;;;;;;;15.15;8.45;;;;;;;-2.34;100.00;98847.91;4159957;28;20037;-70
2023/04/06 06:59:49;;;;;;;11.40;8.25;;;;;;;-2.26;100.00;98848.13;4162030;28;20484;-70
2023/04/06 07:01:49;;;;;;;12.52;8.18;;;;;;;-2.17;100.00;98847.50;4161814;28;20045;-70
2023/04/06 07:03:50;;;;;;;13.50;8.13;;;;;;;-2.08;100.00;98845.78;4161524;28;20484;-70
2023/04/06 07:05:53;;;;;;;14.70;8.13;;;;;;;-2.01;100.00;98838.94;4164241;28;20041;-70
2023/04/06 07:07:54;;;;;;;14.45;8.32;;;;;;;-1.90;100.00;98842.38;4159454;28;20378;-70
2023/04/06 07:09:55;;;;;;;13.57;7.97;;;;;;;-1.82;100.00;98840.91;4159484;28;20176;-70
2023/04/06 07:11:56;;;;;;;15.07;8.52;;;;;;;-1.67;100.00;98831.78;4160053;28;20438;-70
2023/04/06 07:13:56;;;;;;;22.70;16.77;;;;;;;-1.53;100.00;98838.13;4157894;28;20077;-70
2023/04/06 07:15:56;;;;;;;14.90;11.13;;;;;;;-1.44;100.00;98833.69;4158324;28;20076;-70
2023/04/06 07:17:57;;;;;;;14.20;9.95;;;;;;;-1.32;100.00;98839.50;4159823;28;20075;-70
2023/04/06 07:19:57;;;;;;;15.95;9.05;;;;;;;-1.25;100.00;98839.94;4158997;28;20045;-70
2023/04/06 07:21:58;;;;;;;14.85;8.10;;;;;;;-1.19;100.00;98836.06;4160309;28;20073;-70
2023/04/06 07:23:58;;;;;;;14.32;8.27;;;;;;;-1.11;100.00;98837.31;4160751;28;20080;-70
2023/04/06 07:25:58;;;;;;;18.98;7.93;;;;;;;-1.01;100.00;98839.06;4162518;28;20421;-70
2023/04/06 07:27:58;;;;;;;14.65;9.55;;;;;;;-0.93;100.00;98841.13;4159020;28;20099;-70
2023/04/06 07:29:59;;;;;;;12.82;9.07;;;;;;;-0.87;100.00;98831.81;4159183;28;20092;-71
2023/04/06 07:31:59;;;;;;;13.00;8.73;;;;;;;-0.72;100.00;98837.03;4159752;28;20084;-70
2023/04/06 07:33:59;;;;;;;14.50;9.13;;;;;;;-0.58;100.00;98845.22;4157991;28;20044;-70
2023/04/06 07:36:00;;;;;;;11.77;8.07;;;;;;;-0.46;100.00;98845.59;4159865;28;20059;-70
2023/04/06 07:38:00;;;;;;;19.58;8.88;;;;;;;-0.34;100.00;98843.19;4161695;28;20140;-70
2023/04/06 07:40:01;;;;;;;16.20;9.18;;;;;;;-0.23;100.00;98837.59;4159230;28;20041;-70
2023/04/06 07:42:01;;;;;;;11.18;8.45;;;;;;;-0.15;100.00;98828.75;4159292;28;20029;-71
2023/04/06 07:44:01;;;;;;;12.60;8.73;;;;;;;-0.05;100.00;98829.38;4158400;28;20057;-71
2023/04/06 07:46:02;;;;;;;11.38;8.35;;;;;;;0.07;100.00;98836.22;4160297;28;20032;-71
2023/04/06 07:48:02;;;;;;;14.85;9.07;;;;;;;0.15;100.00;98828.19;4158126;28;20029;-71
2023/04/06 07:50:03;;;;;;;19.27;9.55;;;;;;;0.26;100.00;98824.19;4158736;28;20021;-71
2023/04/06 07:52:03;;;;;;;15.68;8.65;;;;;;;0.43;100.00;98823.56;4158611;28;20466;-71
2023/04/06 07:54:04;;;;;;;15.90;7.97;;;;;;;0.65;100.00;98827.47;4158303;28;20021;-71
2023/04/06 07:56:04;;;;;;;12.45;8.55;;;;;;;0.84;100.00;98830.91;4161970;28;20033;-71
2023/04/06 07:58:05;;;;;;;14.77;8.25;;;;;;;0.95;100.00;98824.09;4158274;28;20029;-71
2023/04/06 08:00:06;;;;;;;14.20;7.63;;;;;;;1.07;99.72;98829.00;4159719;28;20021;-71
2023/04/06 08:02:06;;;;;;;14.00;8.13;;;;;;;1.25;97.59;98819.09;4157951;28;20037;-71
2023/04/06 08:04:07;;;;;;;17.83;8.88;;;;;;;1.34;96.53;98807.13;4157645;28;20028;-71
2023/04/06 08:06:07;;;;;;;13.18;7.53;;;;;;;1.42;96.20;98819.22;4159882;28;20044;-71
2023/04/06 08:08:08;;;;;;;9.80;6.90;;;;;;;1.52;92.88;98812.72;4162246;28;20488;-71
2023/04/06 08:10:09;;;;;;;10.75;7.47;;;;;;;1.62;93.09;98817.91;4142113;28;20037;-71
2023/04/06 08:12:09;;;;;;;11.68;7.68;;;;;;;1.79;93.42;98812.56;4159588;28;20021;-71
2023/04/06 08:14:09;;;;;;;12.57;8.13;;;;;;;1.90;94.90;98810.34;4158310;28;20076;-71
2023/04/06 08:16:10;;;;;;;13.82;7.25;;;;;;;1.97;93.10;98806.06;4158308;28;20128;-71
2023/04/06 08:18:10;;;;;;;11.35;7.43;;;;;;;2.04;92.97;98810.28;4159523;28;20044;-71
2023/04/06 08:20:11;;;;;;;10.48;7.40;;;;;;;2.09;94.11;98815.63;4163361;28;20052;-71
2023/04/06 08:22:12;;;;;;;12.95;7.43;;;;;;;2.14;93.57;98823.66;4157676;28;20116;-71
2023/04/06 08:24:12;;;;;;;11.50;7.13;;;;;;;2.22;91.63;98818.22;4164380;28;20044;-71
2023/04/06 08:26:13;;;;;;;11.77;6.65;;;;;;;2.29;90.38;98816.97;4161043;28;20044;-71
2023/04/06 08:28:13;;;;;;;10.50;6.78;;;;;;;2.37;91.09;98818.94;4160438;28;20040;-71
2023/04/06 08:30:15;;;;;;;11.52;7.20;;;;;;;2.43;89.14;98817.69;4162684;28;20369;-71
2023/04/06 08:32:15;;;;;;;9.00;6.60;;;;;;;2.56;89.00;98810.47;4161667;28;20025;-71
2023/04/06 08:34:16;;;;;;;10.55;6.72;;;;;;;2.75;88.00;98811.03;4161152;28;20432;-71
2023/04/06 08:36:18;;;;;;;10.70;6.78;;;;;;;2.91;89.02;98814.09;4162617;28;20033;-71
2023/04/06 08:38:18;;;;;;;12.45;7.15;;;;;;;3.02;87.73;98810.72;4163113;28;20025;-71
2023/04/06 08:40:18;;;;;;;10.07;6.53;;;;;;;3.13;86.67;98816.69;4161597;28;20465;-71
2023/04/06 08:42:21;;;;;;;11.02;7.10;;;;;;;3.32;86.57;98813.66;4160280;28;20068;-71
2023/04/06 08:44:21;;;;;;;10.45;6.28;;;;;;;3.41;84.68;98802.72;4161372;28;20084;-71
2023/04/06 08:46:21;;;;;;;10.10;6.80;;;;;;;3.45;84.51;98804.47;4160917;28;20558;-71
2023/04/06 08:48:23;;;;;;;9.55;6.45;;;;;;;3.59;78.57;98810.56;4161448;28;20049;-71
2023/04/06 08:50:24;;;;;;;10.57;5.70;;;;;;;3.73;74.42;98804.13;4161275;28;20528;-71
2023/04/06 08:52:26;;;;;;;9.60;6.32;;;;;;;3.99;78.48;98806.81;4164763;28;20038;-71
2023/04/06 08:54:26;;;;;;;9.13;6.00;;;;;;;4.03;77.93;98808.53;4160572;28;20036;-71
2023/04/06 08:56:28;;;;;;;10.25;6.53;;;;;;;4.07;73.74;98809.50;4161227;28;20120;-71
2023/04/06 08:58:33;;;;;;;9.05;5.90;;;;;;;4.17;71.45;98803.66;4161696;28;20120;-71
2023/04/06 09:00:37;;;;;;;8.43;6.28;;;;;;;4.19;74.61;98803.34;4160793;28;20552;-71
2023/04/06 09:02:40;;;;;;;9.02;6.28;;;;;;;4.20;72.20;98794.78;4160727;28;20095;-71
2023/04/06 09:04:41;;;;;;;9.38;5.63;;;;;;;4.31;71.06;98802.66;4160553;28;20046;-71
2023/04/06 09:06:41;;;;;;;9.20;5.85;;;;;;;4.44;68.30;98796.16;4162528;28;20087;-71
2023/04/06 09:08:42;;;;;;;8.75;5.82;;;;;;;4.46;69.80;98800.16;4160268;28;20068;-71
2023/04/06 09:10:42;;;;;;;7.20;5.07;;;;;;;4.53;70.70;98802.38;4161324;28;20052;-71
2023/04/06 09:12:44;;;;;;;8.55;6.07;;;;;;;4.61;72.29;98803.47;4167143;28;20045;-71
2023/04/06 09:14:44;;;;;;;10.25;6.63;;;;;;;4.71;73.42;98803.88;4166238;28;20140;-71